sensor_id;sensor_type;location;lat;lon;timestamp;pressure;altitude;pressure_sealevel;temperature;humidity
55733;BME280;41637;52.364;9.910;2022-07-23T00:00:16;101085.45;;;14.39;92.15
55733;BME280;41637;52.364;9.910;2022-07-23T00:02:43;101087.47;;;14.40;92.31
55733;BME280;41637;52.364;9.910;2022-07-23T00:05:10;101088.23;;;14.41;92.33
55733;BME280;41637;52.364;9.910;2022-07-23T00:07:37;101091.60;;;14.42;92.60
55733;BME280;41637;52.364;9.910;2022-07-23T00:10:05;101096.17;;;14.44;92.91
55733;BME280;41637;52.364;9.910;2022-07-23T00:12:32;101096.42;;;14.45;92.94
55733;BME280;41637;52.364;9.910;2022-07-23T00:14:58;101091.88;;;14.46;93.12
55733;BME280;41637;52.364;9.910;2022-07-23T00:17:26;101090.73;;;14.46;92.93
55733;BME280;41637;52.364;9.910;2022-07-23T00:19:53;101092.13;;;14.46;93.27
55733;BME280;41637;52.364;9.910;2022-07-23T00:22:20;101089.02;;;14.47;92.99
55733;BME280;41637;52.364;9.910;2022-07-23T00:24:47;101081.99;;;14.48;93.08
55733;BME280;41637;52.364;9.910;2022-07-23T00:27:34;101083.92;;;14.48;93.02
55733;BME280;41637;52.364;9.910;2022-07-23T00:30:00;101082.73;;;14.47;93.16
55733;BME280;41637;52.364;9.910;2022-07-23T00:32:27;101090.69;;;14.47;93.14
55733;BME280;41637;52.364;9.910;2022-07-23T00:35:14;101087.77;;;14.46;93.34
55733;BME280;41637;52.364;9.910;2022-07-23T00:37:42;101082.34;;;14.45;93.41
55733;BME280;41637;52.364;9.910;2022-07-23T00:40:09;101085.66;;;14.44;93.41
55733;BME280;41637;52.364;9.910;2022-07-23T00:42:39;101088.28;;;14.43;93.70
55733;BME280;41637;52.364;9.910;2022-07-23T00:45:06;101080.45;;;14.41;93.80
55733;BME280;41637;52.364;9.910;2022-07-23T00:47:32;101075.73;;;14.40;93.56
55733;BME280;41637;52.364;9.910;2022-07-23T00:49:59;101086.55;;;14.37;93.62
55733;BME280;41637;52.364;9.910;2022-07-23T00:52:26;101087.17;;;14.35;93.79
55733;BME280;41637;52.364;9.910;2022-07-23T00:54:53;101086.28;;;14.32;93.88
55733;BME280;41637;52.364;9.910;2022-07-23T00:57:20;101086.42;;;14.29;94.00
55733;BME280;41637;52.364;9.910;2022-07-23T00:59:54;101092.70;;;14.24;94.07
55733;BME280;41637;52.364;9.910;2022-07-23T01:02:21;101097.83;;;14.22;94.28
55733;BME280;41637;52.364;9.910;2022-07-23T01:04:48;101093.64;;;14.18;94.40
55733;BME280;41637;52.364;9.910;2022-07-23T01:07:15;101090.97;;;14.14;94.45
55733;BME280;41637;52.364;9.910;2022-07-23T01:09:43;101090.73;;;14.10;94.52
55733;BME280;41637;52.364;9.910;2022-07-23T01:12:10;101087.11;;;14.05;94.91
55733;BME280;41637;52.364;9.910;2022-07-23T01:14:37;101088.88;;;14.02;95.18
55733;BME280;41637;52.364;9.910;2022-07-23T01:17:04;101094.50;;;13.98;95.22
55733;BME280;41637;52.364;9.910;2022-07-23T01:19:31;101091.13;;;13.94;95.41
55733;BME280;41637;52.364;9.910;2022-07-23T01:21:58;101088.59;;;13.88;95.46
55733;BME280;41637;52.364;9.910;2022-07-23T01:24:27;101081.69;;;13.82;95.58
55733;BME280;41637;52.364;9.910;2022-07-23T01:26:55;101079.35;;;13.76;95.72
55733;BME280;41637;52.364;9.910;2022-07-23T01:29:22;101080.59;;;13.71;96.04
55733;BME280;41637;52.364;9.910;2022-07-23T01:31:49;101072.13;;;13.66;96.30
55733;BME280;41637;52.364;9.910;2022-07-23T01:34:16;101071.72;;;13.60;96.19
55733;BME280;41637;52.364;9.910;2022-07-23T01:36:43;101066.98;;;13.56;96.67
55733;BME280;41637;52.364;9.910;2022-07-23T01:39:10;101061.91;;;13.51;96.81
55733;BME280;41637;52.364;9.910;2022-07-23T01:41:37;101059.09;;;13.45;97.14
55733;BME280;41637;52.364;9.910;2022-07-23T01:44:05;101052.45;;;13.40;97.44
55733;BME280;41637;52.364;9.910;2022-07-23T01:46:32;101051.68;;;13.36;97.51
55733;BME280;41637;52.364;9.910;2022-07-23T01:48:59;101058.52;;;13.33;97.68
55733;BME280;41637;52.364;9.910;2022-07-23T01:51:26;101055.21;;;13.29;97.82
55733;BME280;41637;52.364;9.910;2022-07-23T01:53:54;101058.29;;;13.24;98.03
55733;BME280;41637;52.364;9.910;2022-07-23T01:56:20;101061.73;;;13.20;98.24
55733;BME280;41637;52.364;9.910;2022-07-23T01:58:48;101059.64;;;13.17;98.49
55733;BME280;41637;52.364;9.910;2022-07-23T02:01:15;101051.00;;;13.14;98.76
55733;BME280;41637;52.364;9.910;2022-07-23T02:03:42;101048.29;;;13.10;98.77
55733;BME280;41637;52.364;9.910;2022-07-23T02:06:09;101045.31;;;13.05;98.68
55733;BME280;41637;52.364;9.910;2022-07-23T02:08:35;101051.32;;;13.00;98.91
55733;BME280;41637;52.364;9.910;2022-07-23T02:11:06;101053.10;;;12.96;99.28
55733;BME280;41637;52.364;9.910;2022-07-23T02:13:33;101053.64;;;12.91;99.63
55733;BME280;41637;52.364;9.910;2022-07-23T02:16:00;101052.64;;;12.88;99.81
55733;BME280;41637;52.364;9.910;2022-07-23T02:18:27;101053.56;;;12.84;100.00
55733;BME280;41637;52.364;9.910;2022-07-23T02:20:54;101050.70;;;12.82;100.00
55733;BME280;41637;52.364;9.910;2022-07-23T02:23:21;101053.33;;;12.79;100.00
55733;BME280;41637;52.364;9.910;2022-07-23T02:25:48;101046.53;;;12.76;100.00
55733;BME280;41637;52.364;9.910;2022-07-23T02:28:15;101041.00;;;12.75;100.00
55733;BME280;41637;52.364;9.910;2022-07-23T02:30:42;101042.91;;;12.74;100.00
55733;BME280;41637;52.364;9.910;2022-07-23T02:33:09;101046.64;;;12.74;100.00
55733;BME280;41637;52.364;9.910;2022-07-23T02:35:36;101046.77;;;12.74;100.00
55733;BME280;41637;52.364;9.910;2022-07-23T02:38:03;101044.63;;;12.74;100.00
55733;BME280;41637;52.364;9.910;2022-07-23T02:40:30;101039.92;;;12.75;100.00
55733;BME280;41637;52.364;9.910;2022-07-23T02:42:57;101037.67;;;12.76;100.00
55733;BME280;41637;52.364;9.910;2022-07-23T02:45:24;101040.73;;;12.77;100.00
55733;BME280;41637;52.364;9.910;2022-07-23T02:47:51;101045.53;;;12.79;100.00
55733;BME280;41637;52.364;9.910;2022-07-23T02:50:18;101049.73;;;12.81;100.00
55733;BME280;41637;52.364;9.910;2022-07-23T02:52:45;101058.62;;;12.82;100.00
55733;BME280;41637;52.364;9.910;2022-07-23T02:55:12;101058.27;;;12.85;100.00
55733;BME280;41637;52.364;9.910;2022-07-23T02:57:40;101057.16;;;12.89;100.00
55733;BME280;41637;52.364;9.910;2022-07-23T03:00:07;101061.39;;;12.92;100.00
55733;BME280;41637;52.364;9.910;2022-07-23T03:02:34;101056.32;;;12.96;100.00
55733;BME280;41637;52.364;9.910;2022-07-23T03:05:01;101052.55;;;12.99;100.00
55733;BME280;41637;52.364;9.910;2022-07-23T03:07:28;101048.63;;;13.02;100.00
55733;BME280;41637;52.364;9.910;2022-07-23T03:09:55;101045.61;;;13.05;100.00
55733;BME280;41637;52.364;9.910;2022-07-23T03:12:23;101036.23;;;13.09;100.00
55733;BME280;41637;52.364;9.910;2022-07-23T03:14:50;101025.72;;;13.13;100.00
55733;BME280;41637;52.364;9.910;2022-07-23T03:17:17;101030.92;;;13.17;100.00
55733;BME280;41637;52.364;9.910;2022-07-23T03:19:44;101032.09;;;13.20;100.00
55733;BME280;41637;52.364;9.910;2022-07-23T03:22:11;101032.11;;;13.24;100.00
55733;BME280;41637;52.364;9.910;2022-07-23T03:24:38;101033.64;;;13.28;100.00
55733;BME280;41637;52.364;9.910;2022-07-23T03:27:22;101032.11;;;13.32;100.00
55733;BME280;41637;52.364;9.910;2022-07-23T03:29:49;101019.38;;;13.36;100.00
55733;BME280;41637;52.364;9.910;2022-07-23T03:32:16;101006.16;;;13.40;100.00
55733;BME280;41637;52.364;9.910;2022-07-23T03:34:43;101013.00;;;13.43;100.00
55733;BME280;41637;52.364;9.910;2022-07-23T03:37:11;101020.34;;;13.47;100.00
55733;BME280;41637;52.364;9.910;2022-07-23T03:39:39;101026.30;;;13.51;100.00
55733;BME280;41637;52.364;9.910;2022-07-23T03:42:06;101025.40;;;13.54;100.00
55733;BME280;41637;52.364;9.910;2022-07-23T03:44:33;101018.05;;;13.58;100.00
55733;BME280;41637;52.364;9.910;2022-07-23T03:47:00;101013.52;;;13.61;100.00
55733;BME280;41637;52.364;9.910;2022-07-23T03:49:30;101015.40;;;13.63;100.00
55733;BME280;41637;52.364;9.910;2022-07-23T03:51:57;101021.58;;;13.65;100.00
55733;BME280;41637;52.364;9.910;2022-07-23T03:54:25;101015.95;;;13.64;100.00
55733;BME280;41637;52.364;9.910;2022-07-23T03:56:51;101011.45;;;13.65;100.00
55733;BME280;41637;52.364;9.910;2022-07-23T03:59:18;101011.39;;;13.64;100.00
55733;BME280;41637;52.364;9.910;2022-07-23T04:01:49;101018.13;;;13.64;100.00
55733;BME280;41637;52.364;9.910;2022-07-23T04:04:16;101032.59;;;13.64;100.00
55733;BME280;41637;52.364;9.910;2022-07-23T04:06:43;101040.75;;;13.62;100.00
55733;BME280;41637;52.364;9.910;2022-07-23T04:09:10;101058.27;;;13.61;100.00
55733;BME280;41637;52.364;9.910;2022-07-23T04:11:37;101056.09;;;13.60;100.00
55733;BME280;41637;52.364;9.910;2022-07-23T04:14:04;101051.40;;;13.59;100.00
55733;BME280;41637;52.364;9.910;2022-07-23T04:16:31;101044.60;;;13.60;100.00
55733;BME280;41637;52.364;9.910;2022-07-23T04:18:59;101043.91;;;13.60;100.00
55733;BME280;41637;52.364;9.910;2022-07-23T04:21:26;101026.23;;;13.60;100.00
55733;BME280;41637;52.364;9.910;2022-07-23T04:23:53;101027.45;;;13.62;100.00
55733;BME280;41637;52.364;9.910;2022-07-23T04:26:21;101035.33;;;13.66;100.00
55733;BME280;41637;52.364;9.910;2022-07-23T04:28:48;101036.08;;;13.70;100.00
55733;BME280;41637;52.364;9.910;2022-07-23T04:31:15;101039.92;;;13.73;100.00
55733;BME280;41637;52.364;9.910;2022-07-23T04:33:42;101044.73;;;13.77;100.00
55733;BME280;41637;52.364;9.910;2022-07-23T04:36:09;101049.98;;;13.81;100.00
55733;BME280;41637;52.364;9.910;2022-07-23T04:38:36;101058.68;;;13.84;100.00
55733;BME280;41637;52.364;9.910;2022-07-23T04:41:06;101061.09;;;13.86;100.00
55733;BME280;41637;52.364;9.910;2022-07-23T04:43:33;101053.91;;;13.87;100.00
55733;BME280;41637;52.364;9.910;2022-07-23T04:46:00;101053.70;;;13.87;100.00
55733;BME280;41637;52.364;9.910;2022-07-23T04:48:28;101056.86;;;13.87;100.00
55733;BME280;41637;52.364;9.910;2022-07-23T04:50:55;101053.50;;;13.87;100.00
55733;BME280;41637;52.364;9.910;2022-07-23T04:53:22;101052.73;;;13.88;100.00
55733;BME280;41637;52.364;9.910;2022-07-23T04:55:49;101050.69;;;13.89;100.00
55733;BME280;41637;52.364;9.910;2022-07-23T04:58:16;101055.53;;;13.88;100.00
55733;BME280;41637;52.364;9.910;2022-07-23T05:00:46;101058.90;;;13.86;100.00
55733;BME280;41637;52.364;9.910;2022-07-23T05:03:13;101065.39;;;13.86;100.00
55733;BME280;41637;52.364;9.910;2022-07-23T05:05:40;101066.07;;;13.85;100.00
55733;BME280;41637;52.364;9.910;2022-07-23T05:08:07;101059.27;;;13.84;100.00
55733;BME280;41637;52.364;9.910;2022-07-23T05:10:35;101058.06;;;13.83;100.00
55733;BME280;41637;52.364;9.910;2022-07-23T05:13:01;101056.30;;;13.83;100.00
55733;BME280;41637;52.364;9.910;2022-07-23T05:15:29;101055.39;;;13.83;100.00
55733;BME280;41637;52.364;9.910;2022-07-23T05:17:56;101053.39;;;13.85;100.00
55733;BME280;41637;52.364;9.910;2022-07-23T05:20:23;101056.29;;;13.86;100.00
55733;BME280;41637;52.364;9.910;2022-07-23T05:22:50;101054.50;;;13.88;100.00
55733;BME280;41637;52.364;9.910;2022-07-23T05:25:18;101053.52;;;13.90;100.00
55733;BME280;41637;52.364;9.910;2022-07-23T05:27:45;101053.02;;;13.96;100.00
55733;BME280;41637;52.364;9.910;2022-07-23T05:30:11;101060.31;;;14.05;100.00
55733;BME280;41637;52.364;9.910;2022-07-23T05:32:38;101060.88;;;14.16;100.00
55733;BME280;41637;52.364;9.910;2022-07-23T05:35:05;101063.13;;;14.28;100.00
55733;BME280;41637;52.364;9.910;2022-07-23T05:37:32;101061.62;;;14.38;100.00
55733;BME280;41637;52.364;9.910;2022-07-23T05:40:00;101056.95;;;14.49;100.00
55733;BME280;41637;52.364;9.910;2022-07-23T05:42:27;101052.05;;;14.61;100.00
55733;BME280;41637;52.364;9.910;2022-07-23T05:44:53;101052.70;;;14.75;100.00
55733;BME280;41637;52.364;9.910;2022-07-23T05:47:20;101061.45;;;14.87;100.00
55733;BME280;41637;52.364;9.910;2022-07-23T05:49:47;101064.51;;;14.94;100.00
55733;BME280;41637;52.364;9.910;2022-07-23T05:52:14;101064.84;;;14.98;100.00
55733;BME280;41637;52.364;9.910;2022-07-23T05:54:41;101056.87;;;15.08;100.00
55733;BME280;41637;52.364;9.910;2022-07-23T05:57:07;101055.18;;;15.20;99.99
55733;BME280;41637;52.364;9.910;2022-07-23T05:59:34;101061.20;;;15.31;99.88
55733;BME280;41637;52.364;9.910;2022-07-23T06:02:01;101070.96;;;15.43;99.81
55733;BME280;41637;52.364;9.910;2022-07-23T06:04:28;101068.70;;;15.57;99.22
55733;BME280;41637;52.364;9.910;2022-07-23T06:06:55;101070.41;;;15.62;97.41
55733;BME280;41637;52.364;9.910;2022-07-23T06:09:22;101077.20;;;15.64;96.78
55733;BME280;41637;52.364;9.910;2022-07-23T06:11:48;101078.90;;;15.71;96.24
55733;BME280;41637;52.364;9.910;2022-07-23T06:14:15;101079.02;;;15.78;95.99
55733;BME280;41637;52.364;9.910;2022-07-23T06:16:42;101080.13;;;15.88;95.90
55733;BME280;41637;52.364;9.910;2022-07-23T06:19:09;101077.36;;;15.98;95.41
55733;BME280;41637;52.364;9.910;2022-07-23T06:21:35;101078.98;;;16.08;94.97
55733;BME280;41637;52.364;9.910;2022-07-23T06:24:13;101079.27;;;16.19;93.48
55733;BME280;41637;52.364;9.910;2022-07-23T06:26:39;101074.52;;;16.30;93.24
55733;BME280;41637;52.364;9.910;2022-07-23T06:29:06;101077.17;;;16.42;91.29
55733;BME280;41637;52.364;9.910;2022-07-23T06:31:34;101074.70;;;16.50;90.42
55733;BME280;41637;52.364;9.910;2022-07-23T06:34:01;101075.73;;;16.60;90.27
55733;BME280;41637;52.364;9.910;2022-07-23T06:36:28;101075.78;;;16.72;89.58
55733;BME280;41637;52.364;9.910;2022-07-23T06:38:54;101072.33;;;16.81;88.03
55733;BME280;41637;52.364;9.910;2022-07-23T06:41:22;101068.59;;;16.88;87.37
55733;BME280;41637;52.364;9.910;2022-07-23T06:43:49;101072.09;;;16.98;85.77
55733;BME280;41637;52.364;9.910;2022-07-23T06:46:16;101070.69;;;17.05;83.98
55733;BME280;41637;52.364;9.910;2022-07-23T06:48:43;101084.53;;;17.08;82.08
55733;BME280;41637;52.364;9.910;2022-07-23T06:51:10;101076.92;;;17.15;82.45
55733;BME280;41637;52.364;9.910;2022-07-23T06:53:38;101071.84;;;17.26;83.12
55733;BME280;41637;52.364;9.910;2022-07-23T06:56:07;101076.02;;;17.35;81.97
55733;BME280;41637;52.364;9.910;2022-07-23T06:58:34;101076.08;;;17.46;81.12
55733;BME280;41637;52.364;9.910;2022-07-23T07:01:01;101081.91;;;17.64;80.69
55733;BME280;41637;52.364;9.910;2022-07-23T07:03:33;101077.27;;;17.82;80.10
55733;BME280;41637;52.364;9.910;2022-07-23T07:06:00;101073.66;;;17.96;79.13
55733;BME280;41637;52.364;9.910;2022-07-23T07:08:30;101079.55;;;18.14;77.75
55733;BME280;41637;52.364;9.910;2022-07-23T07:10:57;101082.34;;;18.25;75.09
55733;BME280;41637;52.364;9.910;2022-07-23T07:13:24;101081.13;;;18.33;73.61
55733;BME280;41637;52.364;9.910;2022-07-23T07:15:51;101086.39;;;18.40;72.95
55733;BME280;41637;52.364;9.910;2022-07-23T07:18:17;101084.87;;;18.43;72.63
55733;BME280;41637;52.364;9.910;2022-07-23T07:20:44;101089.27;;;18.54;72.49
55733;BME280;41637;52.364;9.910;2022-07-23T07:23:12;101098.45;;;18.63;70.86
55733;BME280;41637;52.364;9.910;2022-07-23T07:25:41;101104.20;;;18.67;69.26
55733;BME280;41637;52.364;9.910;2022-07-23T07:28:08;101103.89;;;18.77;69.51
55733;BME280;41637;52.364;9.910;2022-07-23T07:30:42;101107.78;;;18.76;68.25
55733;BME280;41637;52.364;9.910;2022-07-23T07:33:09;101101.85;;;18.62;67.77
55733;BME280;41637;52.364;9.910;2022-07-23T07:35:35;101108.52;;;18.49;67.84
55733;BME280;41637;52.364;9.910;2022-07-23T07:38:02;101113.09;;;18.43;68.73
55733;BME280;41637;52.364;9.910;2022-07-23T07:40:29;101107.31;;;18.37;69.30
55733;BME280;41637;52.364;9.910;2022-07-23T07:42:59;101109.03;;;18.44;69.52
55733;BME280;41637;52.364;9.910;2022-07-23T07:45:27;101110.30;;;18.47;67.85
55733;BME280;41637;52.364;9.910;2022-07-23T07:47:54;101106.01;;;18.46;68.71
55733;BME280;41637;52.364;9.910;2022-07-23T07:50:22;101107.88;;;18.56;69.00
55733;BME280;41637;52.364;9.910;2022-07-23T07:52:49;101114.05;;;18.62;66.40
55733;BME280;41637;52.364;9.910;2022-07-23T07:55:15;101118.18;;;18.54;65.53
55733;BME280;41637;52.364;9.910;2022-07-23T07:57:43;101118.48;;;18.52;66.32
55733;BME280;41637;52.364;9.910;2022-07-23T08:00:14;101119.02;;;18.66;66.70
55733;BME280;41637;52.364;9.910;2022-07-23T08:02:51;101119.89;;;18.79;66.07
55733;BME280;41637;52.364;9.910;2022-07-23T08:05:22;101119.98;;;18.83;65.31
55733;BME280;41637;52.364;9.910;2022-07-23T08:07:53;101127.23;;;18.93;64.72
55733;BME280;41637;52.364;9.910;2022-07-23T08:10:20;101121.29;;;19.11;64.82
55733;BME280;41637;52.364;9.910;2022-07-23T08:12:48;101122.70;;;19.25;64.49
55733;BME280;41637;52.364;9.910;2022-07-23T08:15:16;101128.61;;;19.27;64.27
55733;BME280;41637;52.364;9.910;2022-07-23T08:17:44;101129.27;;;19.15;63.09
55733;BME280;41637;52.364;9.910;2022-07-23T08:20:11;101130.69;;;19.08;63.21
55733;BME280;41637;52.364;9.910;2022-07-23T08:25:08;101123.81;;;19.32;63.13
55733;BME280;41637;52.364;9.910;2022-07-23T08:27:35;101126.06;;;19.46;62.53
55733;BME280;41637;52.364;9.910;2022-07-23T08:30:03;101132.26;;;19.51;62.07
55733;BME280;41637;52.364;9.910;2022-07-23T08:32:30;101132.44;;;19.45;61.86
55733;BME280;41637;52.364;9.910;2022-07-23T08:35:10;101130.21;;;19.57;62.06
55733;BME280;41637;52.364;9.910;2022-07-23T08:37:37;101132.89;;;19.74;62.20
55733;BME280;41637;52.364;9.910;2022-07-23T08:40:03;101132.80;;;19.89;61.15
55733;BME280;41637;52.364;9.910;2022-07-23T08:42:30;101134.66;;;19.79;60.66
55733;BME280;41637;52.364;9.910;2022-07-23T08:44:57;101132.89;;;19.85;61.00
55733;BME280;41637;52.364;9.910;2022-07-23T08:47:24;101130.27;;;19.99;57.75
55733;BME280;41637;52.364;9.910;2022-07-23T08:49:52;101127.48;;;20.16;57.50
55733;BME280;41637;52.364;9.910;2022-07-23T08:52:19;101134.35;;;20.26;56.36
55733;BME280;41637;52.364;9.910;2022-07-23T08:54:52;101136.39;;;20.22;55.47
55733;BME280;41637;52.364;9.910;2022-07-23T08:57:19;101144.45;;;20.12;55.62
55733;BME280;41637;52.364;9.910;2022-07-23T08:59:46;101140.91;;;20.00;56.60
55733;BME280;41637;52.364;9.910;2022-07-23T09:02:13;101142.15;;;19.91;57.57
55733;BME280;41637;52.364;9.910;2022-07-23T09:04:40;101145.93;;;19.78;58.02
55733;BME280;41637;52.364;9.910;2022-07-23T09:07:07;101139.64;;;19.82;58.82
55733;BME280;41637;52.364;9.910;2022-07-23T09:09:34;101138.52;;;20.08;58.65
55733;BME280;41637;52.364;9.910;2022-07-23T09:12:03;101134.86;;;20.30;58.17
55733;BME280;41637;52.364;9.910;2022-07-23T09:14:39;101140.42;;;20.48;55.77
55733;BME280;41637;52.364;9.910;2022-07-23T09:17:10;101132.27;;;20.54;54.49
55733;BME280;41637;52.364;9.910;2022-07-23T09:19:36;101136.65;;;20.69;54.12
55733;BME280;41637;52.364;9.910;2022-07-23T09:22:19;101139.39;;;20.77;53.04
55733;BME280;41637;52.364;9.910;2022-07-23T09:27:47;101136.38;;;20.95;53.25
55733;BME280;41637;52.364;9.910;2022-07-23T09:30:24;101134.00;;;21.16;53.43
55733;BME280;41637;52.364;9.910;2022-07-23T09:35:52;101141.77;;;20.92;52.35
55733;BME280;41637;52.364;9.910;2022-07-23T09:38:20;101142.55;;;20.70;51.87
55733;BME280;41637;52.364;9.910;2022-07-23T09:40:46;101143.98;;;20.50;51.18
55733;BME280;41637;52.364;9.910;2022-07-23T09:43:33;101143.98;;;20.44;52.05
55733;BME280;41637;52.364;9.910;2022-07-23T09:48:58;101147.77;;;20.53;53.17
55733;BME280;41637;52.364;9.910;2022-07-23T09:51:45;101147.44;;;20.63;53.84
55733;BME280;41637;52.364;9.910;2022-07-23T09:56:49;101135.06;;;20.94;52.27
55733;BME280;41637;52.364;9.910;2022-07-23T09:59:16;101137.75;;;21.03;51.61
55733;BME280;41637;52.364;9.910;2022-07-23T10:01:45;101139.40;;;21.09;49.78
55733;BME280;41637;52.364;9.910;2022-07-23T10:04:12;101132.41;;;21.34;50.08
55733;BME280;41637;52.364;9.910;2022-07-23T10:06:39;101129.35;;;21.58;50.15
55733;BME280;41637;52.364;9.910;2022-07-23T10:09:06;101140.34;;;21.70;49.66
55733;BME280;41637;52.364;9.910;2022-07-23T10:11:35;101133.71;;;21.71;49.61
55733;BME280;41637;52.364;9.910;2022-07-23T10:14:02;101143.73;;;21.57;49.93
55733;BME280;41637;52.364;9.910;2022-07-23T10:16:31;101148.98;;;21.41;50.43
55733;BME280;41637;52.364;9.910;2022-07-23T10:18:58;101142.23;;;21.22;50.99
55733;BME280;41637;52.364;9.910;2022-07-23T10:31:47;101142.73;;;21.17;50.99
55733;BME280;41637;52.364;9.910;2022-07-23T10:34:35;101140.07;;;21.38;50.34
55733;BME280;41637;52.364;9.910;2022-07-23T10:39:48;101137.81;;;21.81;47.48
55733;BME280;41637;52.364;9.910;2022-07-23T10:42:34;101134.36;;;22.00;48.09
55733;BME280;41637;52.364;9.910;2022-07-23T10:45:02;101145.89;;;22.05;47.41
55733;BME280;41637;52.364;9.910;2022-07-23T10:47:48;101134.79;;;22.19;48.12
55733;BME280;41637;52.364;9.910;2022-07-23T10:50:22;101140.61;;;22.50;47.57
55733;BME280;41637;52.364;9.910;2022-07-23T10:58:02;101146.67;;;22.19;47.63
55733;BME280;41637;52.364;9.910;2022-07-23T11:00:29;101141.84;;;22.25;47.96
55733;BME280;41637;52.364;9.910;2022-07-23T11:03:03;101145.49;;;22.23;47.80
55733;BME280;41637;52.364;9.910;2022-07-23T11:05:44;101146.67;;;22.19;47.31
55733;BME280;41637;52.364;9.910;2022-07-23T11:32:23;101146.52;;;22.35;45.85
55733;BME280;41637;52.364;9.910;2022-07-23T11:34:51;101136.73;;;22.41;45.68
55733;BME280;41637;52.364;9.910;2022-07-23T11:37:31;101135.93;;;22.52;45.46
55733;BME280;41637;52.364;9.910;2022-07-23T11:39:58;101133.19;;;22.72;45.38
55733;BME280;41637;52.364;9.910;2022-07-23T11:42:24;101132.29;;;22.87;43.56
55733;BME280;41637;52.364;9.910;2022-07-23T11:44:56;101137.25;;;23.02;43.78
55733;BME280;41637;52.364;9.910;2022-07-23T11:47:24;101131.58;;;23.30;43.73
55733;BME280;41637;52.364;9.910;2022-07-23T11:50:05;101139.55;;;23.36;43.35
55733;BME280;41637;52.364;9.910;2022-07-23T11:52:32;101130.20;;;23.04;43.17
55733;BME280;41637;52.364;9.910;2022-07-23T11:57:27;101134.84;;;22.90;43.03
55733;BME280;41637;52.364;9.910;2022-07-23T11:59:55;101132.95;;;22.99;43.32
55733;BME280;41637;52.364;9.910;2022-07-23T12:02:22;101135.26;;;23.20;43.22
55733;BME280;41637;52.364;9.910;2022-07-23T12:04:50;101135.52;;;23.46;42.59
55733;BME280;41637;52.364;9.910;2022-07-23T12:07:30;101137.54;;;23.39;42.50
55733;BME280;41637;52.364;9.910;2022-07-23T12:09:58;101131.58;;;23.30;42.98
55733;BME280;41637;52.364;9.910;2022-07-23T12:12:25;101133.23;;;23.53;42.78
55733;BME280;41637;52.364;9.910;2022-07-23T12:14:52;101128.30;;;23.85;41.93
55733;BME280;41637;52.364;9.910;2022-07-23T12:17:20;101142.69;;;24.17;40.99
55733;BME280;41637;52.364;9.910;2022-07-23T12:19:47;101126.83;;;24.42;40.42
55733;BME280;41637;52.364;9.910;2022-07-23T12:22:15;101129.04;;;24.80;39.90
55733;BME280;41637;52.364;9.910;2022-07-23T12:24:55;101119.71;;;25.21;38.77
55733;BME280;41637;52.364;9.910;2022-07-23T12:27:22;101124.25;;;25.69;37.67
55733;BME280;41637;52.364;9.910;2022-07-23T12:29:49;101130.52;;;25.83;37.01
55733;BME280;41637;52.364;9.910;2022-07-23T12:32:26;101125.31;;;25.38;37.36
55733;BME280;41637;52.364;9.910;2022-07-23T12:35:03;101122.31;;;25.46;37.56
55733;BME280;41637;52.364;9.910;2022-07-23T12:37:40;101134.45;;;25.53;37.46
55733;BME280;41637;52.364;9.910;2022-07-23T12:42:58;101140.03;;;25.61;37.26
55733;BME280;41637;52.364;9.910;2022-07-23T12:45:25;101138.42;;;25.51;37.71
55733;BME280;41637;52.364;9.910;2022-07-23T12:47:58;101130.75;;;26.06;38.09
55733;BME280;41637;52.364;9.910;2022-07-23T12:50:41;101128.74;;;26.64;35.94
55733;BME280;41637;52.364;9.910;2022-07-23T12:55:44;101128.61;;;27.04;35.39
55733;BME280;41637;52.364;9.910;2022-07-23T13:01:08;101136.95;;;28.02;33.65
55733;BME280;41637;52.364;9.910;2022-07-23T13:03:40;101140.09;;;28.81;31.98
55733;BME280;41637;52.364;9.910;2022-07-23T13:06:09;101138.20;;;29.73;31.03
55733;BME280;41637;52.364;9.910;2022-07-23T13:08:37;101138.61;;;30.43;30.60
55733;BME280;41637;52.364;9.910;2022-07-23T13:11:07;101141.33;;;30.06;30.33
55733;BME280;41637;52.364;9.910;2022-07-23T13:13:34;101146.44;;;30.16;29.43
55733;BME280;41637;52.364;9.910;2022-07-23T13:16:01;101148.51;;;30.32;29.17
55733;BME280;41637;52.364;9.910;2022-07-23T13:18:36;101147.52;;;31.15;27.93
55733;BME280;41637;52.364;9.910;2022-07-23T13:21:07;101145.33;;;31.85;26.84
55733;BME280;41637;52.364;9.910;2022-07-23T13:23:35;101146.86;;;31.82;26.39
55733;BME280;41637;52.364;9.910;2022-07-23T13:26:02;101144.94;;;31.41;27.22
55733;BME280;41637;52.364;9.910;2022-07-23T13:28:31;101148.09;;;32.04;26.35
55733;BME280;41637;52.364;9.910;2022-07-23T13:30:58;101143.75;;;31.49;26.64
55733;BME280;41637;52.364;9.910;2022-07-23T13:33:25;101138.98;;;30.53;28.26
55733;BME280;41637;52.364;9.910;2022-07-23T13:35:53;101145.17;;;29.80;28.66
55733;BME280;41637;52.364;9.910;2022-07-23T13:38:21;101152.58;;;30.38;27.70
55733;BME280;41637;52.364;9.910;2022-07-23T13:40:49;101145.69;;;31.07;27.11
55733;BME280;41637;52.364;9.910;2022-07-23T13:43:16;101145.67;;;32.16;26.24
55733;BME280;41637;52.364;9.910;2022-07-23T13:45:48;101141.67;;;33.08;25.47
55733;BME280;41637;52.364;9.910;2022-07-23T13:48:15;101144.02;;;33.29;24.30
55733;BME280;41637;52.364;9.910;2022-07-23T13:50:42;101149.31;;;32.53;24.89
55733;BME280;41637;52.364;9.910;2022-07-23T13:53:13;101154.93;;;32.07;25.32
55733;BME280;41637;52.364;9.910;2022-07-23T13:55:40;101145.84;;;32.35;25.53
55733;BME280;41637;52.364;9.910;2022-07-23T13:58:14;101140.73;;;32.93;24.53
55733;BME280;41637;52.364;9.910;2022-07-23T14:00:43;101138.77;;;32.77;24.43